Time;durP1;ratioP1;P1;durP2;ratioP2;P2;SDS_P1;SDS_P2;PMS_P1;PMS_P2;Temp;Humidity;BMP_temperature;BMP_pressure;BME280_temperature;BME280_humidity;BME280_pressure;Samples;Min_cycle;Max_cycle;Signal;HPM_P1;HPM_P2
2023/04/20 00:03:26;;;;;;;;;;;;;;;7.41;36.39;102467.31;10555273;28;19931;-77
2023/04/20 00:08:28;;;;;;;;;;;;;;;7.27;35.94;102462.94;10566868;28;19930;-78
2023/04/20 00:13:30;;;;;;;;;;;;;;;7.17;37.44;102459.84;10556250;28;19924;-77
2023/04/20 00:18:31;;;;;;;;;;;;;;;7.17;37.80;102471.59;10549694;28;19927;-78
2023/04/20 00:23:33;;;;;;;;;;;;;;;7.12;37.65;102460.47;10567899;28;19924;-77
2023/04/20 00:28:35;;;;;;;;;;;;;;;7.07;37.54;102443.88;10554788;28;19924;-77
2023/04/20 00:33:37;;;;;;;;;;;;;;;7.02;38.34;102438.22;10529692;28;19924;-77
2023/04/20 00:38:39;;;;;;;;;;;;;;;6.98;38.56;102441.59;10544391;28;19925;-77
2023/04/20 00:43:48;;;;;;;;;;;;;;;6.97;39.06;102445.41;10573144;28;19935;-78
2023/04/20 00:48:52;;;;;;;;;;;;;;;7.03;39.65;102436.34;10584862;28;19931;-78
2023/04/20 00:53:54;;;;;;;;;;;;;;;6.98;40.38;102436.16;10586776;28;19931;-78
2023/04/20 00:58:56;;;;;;;;;;;;;;;6.88;40.71;102431.13;10540707;28;19924;-78
2023/04/20 01:03:58;;;;;;;;;;;;;;;6.89;40.01;102438.25;10541068;28;19924;-78
2023/04/20 01:09:00;;;;;;;;;;;;;;;6.94;39.89;102435.72;10555298;28;19931;-78
2023/04/20 01:14:02;;;;;;;;;;;;;;;6.98;39.52;102423.34;10574951;28;19924;-78
2023/04/20 01:19:06;;;;;;;;;;;;;;;7.08;39.71;102425.63;10556925;28;19924;-78
2023/04/20 01:24:08;;;;;;;;;;;;;;;7.18;39.18;102432.31;10573599;28;19924;-77
2023/04/20 01:29:10;;;;;;;;;;;;;;;7.10;39.20;102421.59;10556603;28;19970;-78
2023/04/20 01:34:12;;;;;;;;;;;;;;;7.06;39.16;102414.06;10519454;28;19931;-78
2023/04/20 01:39:14;;;;;;;;;;;;;;;6.91;39.33;102420.59;10532635;28;19931;-78
2023/04/20 01:44:16;;;;;;;;;;;;;;;6.94;39.64;102409.28;10521625;28;20398;-78
2023/04/20 01:49:18;;;;;;;;;;;;;;;6.75;40.03;102415.59;10532045;28;19947;-78
2023/04/20 01:54:20;;;;;;;;;;;;;;;6.76;40.22;102410.97;10569322;28;19931;-78
2023/04/20 01:59:21;;;;;;;;;;;;;;;6.78;40.07;102409.75;10554126;28;19935;-79
2023/04/20 02:04:23;;;;;;;;;;;;;;;6.61;41.28;102405.78;10540654;28;19944;-79
2023/04/20 02:09:25;;;;;;;;;;;;;;;6.34;40.69;102410.41;10573832;28;20310;-78
2023/04/20 02:14:27;;;;;;;;;;;;;;;6.42;40.45;102402.03;10535711;28;19924;-78
2023/04/20 02:19:29;;;;;;;;;;;;;;;6.57;40.91;102390.88;10548502;28;20025;-78
2023/04/20 02:24:31;;;;;;;;;;;;;;;6.54;40.63;102394.03;10562278;28;19934;-78
2023/04/20 02:29:33;;;;;;;;;;;;;;;6.56;40.09;102390.03;10568305;28;19924;-78
2023/04/20 02:34:35;;;;;;;;;;;;;;;6.45;41.29;102389.84;10573120;28;19931;-78
2023/04/20 02:39:37;;;;;;;;;;;;;;;6.28;41.42;102393.00;10541496;28;20306;-78
2023/04/20 02:44:39;;;;;;;;;;;;;;;6.14;41.41;102385.88;10554235;28;19930;-78
2023/04/20 02:49:42;;;;;;;;;;;;;;;6.01;42.15;102388.56;10527666;28;19935;-78
2023/04/20 02:54:44;;;;;;;;;;;;;;;6.13;41.85;102386.06;10545640;28;19925;-78
2023/04/20 02:59:48;;;;;;;;;;;;;;;6.10;42.82;102384.63;10548937;28;19931;-78
2023/04/20 03:04:54;;;;;;;;;;;;;;;6.20;42.26;102379.56;10594286;28;19931;-75
2023/04/20 03:09:57;;;;;;;;;;;;;;;6.16;42.53;102377.47;10579337;28;19939;-78
2023/04/20 03:15:07;;;;;;;;;;;;;;;6.26;41.97;102378.75;10525899;28;20335;-78
2023/04/20 03:20:26;;;;;;;;;;;;;;;6.32;42.15;102366.16;10551520;28;19931;-78
2023/04/20 03:25:28;;;;;;;;;;;;;;;6.47;41.72;102368.66;10569195;28;19928;-79
2023/04/20 03:30:36;;;;;;;;;;;;;;;6.59;41.44;102367.78;10553100;28;19923;-78
2023/04/20 03:35:44;;;;;;;;;;;;;;;6.84;41.49;102362.50;10555511;28;19924;-78
2023/04/20 03:40:46;;;;;;;;;;;;;;;6.99;40.93;102361.41;10530234;28;20379;-78
2023/04/20 03:45:50;;;;;;;;;;;;;;;7.29;41.48;102362.56;10510553;28;19924;-78
2023/04/20 03:50:53;;;;;;;;;;;;;;;7.88;40.34;102355.06;10519217;28;19923;-79
2023/04/20 03:55:55;;;;;;;;;;;;;;;8.27;38.84;102352.00;10535884;28;19924;-79
2023/04/20 04:01:05;;;;;;;;;;;;;;;8.77;38.48;102355.53;10544625;28;19924;-78
2023/04/20 04:06:08;;;;;;;;;;;;;;;9.30;37.12;102346.69;10528086;28;20307;-76
2023/04/20 04:11:10;;;;;;;;;;;;;;;9.44;37.32;102350.06;10528475;28;19920;-79
2023/04/20 04:16:12;;;;;;;;;;;;;;;9.65;36.46;102341.34;10507839;28;19982;-78
2023/04/20 04:21:14;;;;;;;;;;;;;;;10.10;36.57;102335.38;10534357;28;19924;-78
2023/04/20 04:26:27;;;;;;;;;;;;;;;10.56;36.36;102337.31;10549022;28;19931;-78
2023/04/20 04:31:31;;;;;;;;;;;;;;;11.16;35.35;102339.72;10553527;28;19931;-79
2023/04/20 04:36:42;;;;;;;;;;;;;;;11.40;36.15;102348.72;10567481;28;19951;-78
2023/04/20 04:41:47;;;;;;;;;;;;;;;11.73;35.37;102336.97;10559995;28;19931;-79
2023/04/20 04:47:08;;;;;;;;;;;;;;;12.01;34.48;102349.06;10556038;28;20508;-78
2023/04/20 04:52:10;;;;;;;;;;;;;;;12.27;34.49;102342.88;10574083;28;19924;-79
2023/04/20 04:57:13;;;;;;;;;;;;;;;12.77;34.58;102344.72;10519526;28;19951;-77
2023/04/20 05:02:15;;;;;;;;;;;;;;;13.08;33.99;102331.34;10545148;28;19931;-78
2023/04/20 05:07:17;;;;;;;;;;;;;;;13.57;33.06;102330.31;10554454;28;19932;-79
2023/04/20 05:12:19;;;;;;;;;;;;;;;13.88;32.29;102325.91;10542258;28;19924;-79
2023/04/20 05:17:21;;;;;;;;;;;;;;;14.22;31.91;102314.56;10552988;28;19969;-79
2023/04/20 05:22:23;;;;;;;;;;;;;;;13.01;33.33;102319.66;10582502;28;19923;-79
2023/04/20 05:27:25;;;;;;;;;;;;;;;12.62;33.30;102334.31;10554476;28;19928;-80
2023/04/20 05:32:32;;;;;;;;;;;;;;;12.74;34.13;102323.19;10555904;28;19924;-81
2023/04/20 05:38:10;;;;;;;;;;;;;;;12.38;34.46;102319.94;10577307;28;20289;-80
2023/04/20 05:43:12;;;;;;;;;;;;;;;13.39;33.44;102308.59;10560127;28;19928;-78
2023/04/20 05:48:14;;;;;;;;;;;;;;;13.13;33.67;102301.91;10557738;28;19946;-80
2023/04/20 05:53:16;;;;;;;;;;;;;;;12.92;34.26;102305.53;10571786;28;19924;-80
2023/04/20 05:58:18;;;;;;;;;;;;;;;12.73;33.94;102301.41;10571980;28;19930;-80
2023/04/20 06:03:23;;;;;;;;;;;;;;;13.26;34.25;102296.03;10566607;28;19935;-80
2023/04/20 06:08:26;;;;;;;;;;;;;;;14.70;32.05;102288.69;10603587;28;19935;-80
2023/04/20 06:13:56;;;;;;;;;;;;;;;15.06;31.57;102291.59;10528910;28;20320;-79
2023/04/20 06:18:58;;;;;;;;;;;;;;;14.59;31.08;102286.16;10510305;28;19924;-79
2023/04/20 06:24:00;;;;;;;;;;;;;;;13.91;32.25;102280.41;10569173;28;19930;-81
2023/04/20 06:29:02;;;;;;;;;;;;;;;15.34;30.61;102266.25;10553161;28;19993;-79
2023/04/20 06:34:04;;;;;;;;;;;;;;;16.17;29.76;102256.91;10578640;28;19924;-83
2023/04/20 06:39:06;;;;;;;;;;;;;;;16.76;29.52;102259.78;10522709;28;19973;-81
2023/04/20 06:44:08;;;;;;;;;;;;;;;16.74;28.85;102256.47;10530645;28;19924;-80
2023/04/20 06:49:10;;;;;;;;;;;;;;;16.33;29.22;102244.69;10536570;28;20462;-79
2023/04/20 06:54:12;;;;;;;;;;;;;;;16.30;29.17;102234.13;10570634;28;19924;-78
2023/04/20 06:59:16;;;;;;;;;;;;;;;15.64;29.53;102234.22;10570715;28;19924;-79
2023/04/20 07:04:18;;;;;;;;;;;;;;;15.55;30.28;102235.84;10569023;28;19931;-78
2023/04/20 07:09:21;;;;;;;;;;;;;;;15.31;30.27;102238.31;10570468;28;19930;-78
2023/04/20 07:14:23;;;;;;;;;;;;;;;15.96;29.75;102226.44;10570046;28;20315;-79
2023/04/20 07:19:25;;;;;;;;;;;;;;;16.56;29.52;102226.59;10563041;28;19924;-79
2023/04/20 07:24:28;;;;;;;;;;;;;;;16.65;29.47;102235.13;10551639;28;19924;-78
2023/04/20 07:29:30;;;;;;;;;;;;;;;16.83;29.27;102226.22;10569792;28;20014;-78
2023/04/20 07:34:32;;;;;;;;;;;;;;;17.21;29.11;102215.47;10551827;28;19923;-80
2023/04/20 07:39:34;;;;;;;;;;;;;;;16.91;29.14;102217.31;10560690;28;19963;-77
2023/04/20 07:44:36;;;;;;;;;;;;;;;16.83;29.54;102209.56;10528355;28;19928;-79
2023/04/20 07:49:39;;;;;;;;;;;;;;;17.70;29.01;102196.81;10527440;28;19931;-79
2023/04/20 07:54:41;;;;;;;;;;;;;;;17.72;28.49;102205.69;10559145;28;19924;-79
2023/04/20 07:59:45;;;;;;;;;;;;;;;17.06;28.84;102191.44;10560350;28;20398;-78
2023/04/20 08:04:53;;;;;;;;;;;;;;;16.87;29.48;102192.09;10575452;28;19931;-79
2023/04/20 08:09:55;;;;;;;;;;;;;;;16.51;29.93;102183.09;10577163;28;20489;-79
2023/04/20 08:15:00;;;;;;;;;;;;;;;16.21;30.16;102169.34;10557835;28;19924;-79
2023/04/20 08:20:04;;;;;;;;;;;;;;;16.26;31.02;102180.41;10587152;28;19923;-78
2023/04/20 08:25:07;;;;;;;;;;;;;;;15.93;31.27;102182.69;10536214;28;19924;-78
2023/04/20 08:30:09;;;;;;;;;;;;;;;15.53;31.93;102185.47;10566473;28;19920;-77
2023/04/20 08:35:12;;;;;;;;;;;;;;;16.62;31.00;102181.09;10582202;28;19931;-78
2023/04/20 08:40:15;;;;;;;;;;;;;;;16.61;30.56;102175.84;10568791;28;19932;-78
2023/04/20 08:45:17;;;;;;;;;;;;;;;16.22;30.91;102171.84;10528162;28;19924;-78
2023/04/20 08:50:19;;;;;;;;;;;;;;;16.76;30.30;102161.94;10554419;28;20383;-79
2023/04/20 08:55:21;;;;;;;;;;;;;;;16.74;30.64;102158.63;10515253;28;19931;-76
2023/04/20 09:00:23;;;;;;;;;;;;;;;17.14;30.02;102158.38;10530849;28;19928;-79
2023/04/20 09:05:28;;;;;;;;;;;;;;;17.40;29.70;102147.91;10550767;28;19943;-77
2023/04/20 09:10:41;;;;;;;;;;;;;;;16.89;29.66;102155.78;10522198;28;20407;-77
2023/04/20 09:15:43;;;;;;;;;;;;;;;15.97;31.41;102153.38;10532740;28;19924;-80
2023/04/20 09:20:45;;;;;;;;;;;;;;;15.44;31.36;102148.41;10541207;28;19931;-79
2023/04/20 09:25:49;;;;;;;;;;;;;;;15.00;32.53;102144.25;10550352;28;19924;-79
2023/04/20 09:30:51;;;;;;;;;;;;;;;14.61;33.17;102124.53;10547928;28;20322;-80
2023/04/20 09:35:53;;;;;;;;;;;;;;;14.22;33.37;102124.06;10530951;28;19931;-79
2023/04/20 09:40:55;;;;;;;;;;;;;;;14.02;34.48;102119.28;10516863;28;19924;-79
2023/04/20 09:45:57;;;;;;;;;;;;;;;13.90;34.21;102118.69;10514494;28;19932;-79
2023/04/20 09:51:00;;;;;;;;;;;;;;;13.95;34.03;102121.47;10571773;28;19924;-81
2023/04/20 09:56:11;;;;;;;;;;;;;;;14.21;34.21;102116.06;10573299;28;20342;-80
2023/04/20 10:01:13;;;;;;;;;;;;;;;13.90;34.54;102099.38;10574208;28;19931;-78
2023/04/20 10:06:22;;;;;;;;;;;;;;;13.87;34.77;102097.13;10554342;28;20394;-81
2023/04/20 10:11:25;;;;;;;;;;;;;;;13.81;34.09;102090.75;10521082;28;20354;-81
2023/04/20 10:16:27;;;;;;;;;;;;;;;13.92;34.34;102086.13;10550203;28;20382;-79
2023/04/20 10:21:32;;;;;;;;;;;;;;;14.06;33.37;102090.06;10538445;28;19935;-79
2023/04/20 10:26:44;;;;;;;;;;;;;;;14.12;34.00;102086.22;10549062;28;19928;-77
2023/04/20 10:31:46;;;;;;;;;;;;;;;13.98;33.92;102084.22;10538441;28;19955;-79
2023/04/20 10:36:48;;;;;;;;;;;;;;;13.69;34.10;102075.50;10569107;28;20334;-78
2023/04/20 10:41:53;;;;;;;;;;;;;;;13.73;33.19;102068.38;10554484;28;20019;-79
2023/04/20 10:46:55;;;;;;;;;;;;;;;13.65;33.99;102066.94;10550993;28;19924;-80
2023/04/20 10:51:57;;;;;;;;;;;;;;;13.47;34.33;102067.38;10541760;28;20042;-81
2023/04/20 10:57:02;;;;;;;;;;;;;;;13.25;34.32;102067.50;10553540;28;19982;-80
2023/04/20 11:02:07;;;;;;;;;;;;;;;13.32;34.18;102061.75;10594424;28;19923;-79
2023/04/20 11:07:09;;;;;;;;;;;;;;;13.00;34.51;102048.78;10546158;28;19924;-79
2023/04/20 11:12:13;;;;;;;;;;;;;;;12.95;35.07;102051.50;10527939;28;20039;-80
2023/04/20 11:17:15;;;;;;;;;;;;;;;12.74;34.82;102050.50;10462564;28;19932;-80
2023/04/20 11:22:21;;;;;;;;;;;;;;;12.49;34.99;102042.81;10445150;28;19943;-80
2023/04/20 11:27:23;;;;;;;;;;;;;;;12.35;35.75;102031.41;10427924;28;20388;-80
2023/04/20 11:32:25;;;;;;;;;;;;;;;12.05;36.31;102040.13;10430629;28;20410;-80
2023/04/20 11:37:27;;;;;;;;;;;;;;;11.79;36.90;102043.63;10403142;28;19925;-79
2023/04/20 11:42:29;;;;;;;;;;;;;;;11.59;37.44;102049.66;10435711;28;19928;-80
2023/04/20 11:47:31;;;;;;;;;;;;;;;11.61;37.52;102031.00;10435501;28;19975;-79
2023/04/20 11:52:33;;;;;;;;;;;;;;;11.35;38.31;102034.47;10436512;28;20019;-81
2023/04/20 11:57:35;;;;;;;;;;;;;;;11.06;38.87;102029.09;10454326;28;20384;-81
2023/04/20 12:02:37;;;;;;;;;;;;;;;10.83;39.39;102034.75;10480443;28;19928;-81
2023/04/20 12:07:39;;;;;;;;;;;;;;;10.62;40.93;102019.84;10534539;28;19924;-80
2023/04/20 12:12:41;;;;;;;;;;;;;;;10.51;42.76;102018.00;10483026;28;19924;-80
2023/04/20 12:17:43;;;;;;;;;;;;;;;10.03;44.59;102021.97;10572542;28;19924;-81
2023/04/20 12:22:45;;;;;;;;;;;;;;;9.78;46.31;102014.06;10584443;28;19924;-81
2023/04/20 12:27:47;;;;;;;;;;;;;;;9.92;48.10;102018.22;10600387;28;19924;-80
2023/04/20 12:32:49;;;;;;;;;;;;;;;9.71;49.27;102004.31;10617877;28;19923;-80
2023/04/20 12:37:51;;;;;;;;;;;;;;;9.50;49.15;101995.66;10540938;28;19931;-80
2023/04/20 12:42:53;;;;;;;;;;;;;;;9.53;49.87;101983.38;10528773;28;19927;-81
2023/04/20 12:47:55;;;;;;;;;;;;;;;9.50;49.65;101975.63;10551285;28;19924;-80
2023/04/20 12:52:57;;;;;;;;;;;;;;;9.52;49.98;101970.75;10566933;28;19924;-80
2023/04/20 12:57:59;;;;;;;;;;;;;;;9.77;49.66;101952.09;10549696;28;20402;-80
2023/04/20 13:03:01;;;;;;;;;;;;;;;9.45;50.19;101945.41;10515176;28;19930;-80
2023/04/20 13:08:03;;;;;;;;;;;;;;;9.52;51.35;101935.13;10568007;28;19927;-78
2023/04/20 13:13:05;;;;;;;;;;;;;;;9.58;51.74;101924.03;10550992;28;19935;-79
2023/04/20 13:18:08;;;;;;;;;;;;;;;9.74;50.55;101932.59;10554827;28;19924;-79
2023/04/20 13:23:13;;;;;;;;;;;;;;;9.96;50.05;101919.84;10514955;28;20330;-81
2023/04/20 13:28:15;;;;;;;;;;;;;;;10.23;48.58;101923.66;10551394;28;19924;-80
2023/04/20 13:33:17;;;;;;;;;;;;;;;10.16;48.17;101913.88;10552377;28;19925;-79
2023/04/20 13:38:19;;;;;;;;;;;;;;;10.05;47.50;101901.06;10534425;28;19968;-79
2023/04/20 13:43:24;;;;;;;;;;;;;;;10.10;47.18;101904.75;10556221;28;19924;-79
2023/04/20 13:48:26;;;;;;;;;;;;;;;10.18;47.08;101895.28;10521943;28;19931;-79
2023/04/20 13:53:28;;;;;;;;;;;;;;;10.10;47.03;101885.56;10560341;28;19934;-79
2023/04/20 13:58:30;;;;;;;;;;;;;;;10.27;47.28;101885.59;10537999;28;19924;-80
2023/04/20 14:03:35;;;;;;;;;;;;;;;10.36;47.26;101886.84;10574011;28;19971;-80
2023/04/20 14:08:50;;;;;;;;;;;;;;;10.35;46.57;101884.34;10543234;28;19924;-81
2023/04/20 14:13:52;;;;;;;;;;;;;;;10.34;47.39;101879.94;10518577;28;19930;-80
2023/04/20 14:18:54;;;;;;;;;;;;;;;10.36;47.89;101884.09;10555435;28;19924;-79
2023/04/20 14:23:58;;;;;;;;;;;;;;;10.55;47.18;101877.25;10567242;28;19924;-79
2023/04/20 14:29:00;;;;;;;;;;;;;;;10.49;48.00;101869.22;10499891;28;19924;-80
2023/04/20 14:34:02;;;;;;;;;;;;;;;10.27;47.96;101866.41;10519201;28;19924;-79
2023/04/20 14:39:27;;;;;;;;;;;;;;;10.23;47.42;101866.03;10535179;28;19924;-81
2023/04/20 14:44:29;;;;;;;;;;;;;;;10.20;48.14;101860.19;10553938;28;20170;-81
2023/04/20 14:49:31;;;;;;;;;;;;;;;10.20;47.71;101854.72;10530828;28;20075;-81
2023/04/20 14:54:34;;;;;;;;;;;;;;;10.27;48.94;101860.91;10521454;28;19920;-79
2023/04/20 14:59:40;;;;;;;;;;;;;;;10.39;47.95;101858.06;10544623;28;19936;-79
2023/04/20 15:04:47;;;;;;;;;;;;;;;10.61;48.98;101852.66;10553313;28;20387;-78
2023/04/20 15:09:49;;;;;;;;;;;;;;;10.86;48.14;101836.53;10559497;28;19931;-79
2023/04/20 15:14:52;;;;;;;;;;;;;;;10.67;48.51;101826.94;10524942;28;19924;-81
2023/04/20 15:19:55;;;;;;;;;;;;;;;10.65;48.28;101823.63;10534832;28;20224;-80
2023/04/20 15:24:57;;;;;;;;;;;;;;;10.60;49.39;101824.38;10552525;28;19930;-80
2023/04/20 15:30:05;;;;;;;;;;;;;;;10.55;49.10;101821.53;10513990;28;19931;-80
2023/04/20 15:35:30;;;;;;;;;;;;;;;10.43;49.41;101821.66;10514093;28;19931;-78
2023/04/20 15:40:32;;;;;;;;;;;;;;;10.33;49.19;101816.00;10550482;28;19962;-80
2023/04/20 15:45:34;;;;;;;;;;;;;;;10.21;49.49;101812.50;10548289;28;19924;-79
2023/04/20 15:50:36;;;;;;;;;;;;;;;10.12;48.82;101814.00;10528033;28;19939;-81
2023/04/20 15:55:38;;;;;;;;;;;;;;;10.08;49.57;101799.13;10528137;28;20412;-80
2023/04/20 16:00:40;;;;;;;;;;;;;;;9.96;49.29;101794.53;10515923;28;19924;-80
2023/04/20 16:05:42;;;;;;;;;;;;;;;9.78;49.46;101800.25;10575796;28;19924;-78
2023/04/20 16:10:44;;;;;;;;;;;;;;;9.59;50.53;101798.81;10545560;28;20015;-81
2023/04/20 16:15:46;;;;;;;;;;;;;;;9.36;50.39;101783.31;10561797;28;20019;-79
2023/04/20 16:20:48;;;;;;;;;;;;;;;9.23;51.61;101778.16;10583435;28;19931;-80
2023/04/20 16:25:50;;;;;;;;;;;;;;;9.25;51.31;101776.81;10517506;28;19931;-80
2023/04/20 16:30:53;;;;;;;;;;;;;;;9.06;52.67;101772.63;10557618;28;19928;-80
2023/04/20 16:35:55;;;;;;;;;;;;;;;8.86;53.99;101766.72;10557797;28;20307;-79
2023/04/20 16:40:57;;;;;;;;;;;;;;;8.66;55.14;101754.25;10527091;28;19924;-79
2023/04/20 16:46:02;;;;;;;;;;;;;;;8.68;54.89;101757.59;10547920;28;19927;-78
2023/04/20 16:51:04;;;;;;;;;;;;;;;8.38;56.02;101760.50;10523497;28;20426;-80
2023/04/20 16:56:06;;;;;;;;;;;;;;;8.15;56.85;101750.34;10536462;28;19928;-79
2023/04/20 17:01:08;;;;;;;;;;;;;;;7.93;57.40;101742.97;10562263;28;20441;-83
2023/04/20 17:06:10;;;;;;;;;;;;;;;7.84;58.07;101747.97;10530852;28;19928;-83
2023/04/20 17:11:12;;;;;;;;;;;;;;;7.85;57.95;101746.91;10530238;28;20194;-78
2023/04/20 17:16:14;;;;;;;;;;;;;;;7.78;58.82;101741.53;10561223;28;19931;-78
2023/04/20 17:21:16;;;;;;;;;;;;;;;7.71;58.59;101748.19;10568343;28;19939;-79
2023/04/20 17:26:18;;;;;;;;;;;;;;;7.51;59.13;101743.88;10563483;28;20302;-82
2023/04/20 17:32:05;;;;;;;;;;;;;;;7.54;59.98;101740.69;10536842;28;19938;-78
2023/04/20 17:37:07;;;;;;;;;;;;;;;7.58;59.53;101743.75;10560503;28;20276;-78
2023/04/20 17:42:10;;;;;;;;;;;;;;;7.50;59.67;101742.22;10534527;28;20019;-77
2023/04/20 17:47:57;;;;;;;;;;;;;;;7.46;60.48;101732.84;10548759;28;19924;-79
2023/04/20 17:53:07;;;;;;;;;;;;;;;7.67;60.87;101725.97;10535481;28;19924;-76
2023/04/20 17:58:09;;;;;;;;;;;;;;;7.65;60.41;101721.81;10579285;28;19928;-79
2023/04/20 18:03:13;;;;;;;;;;;;;;;7.93;59.53;101713.75;10512362;28;20350;-79
2023/04/20 18:08:16;;;;;;;;;;;;;;;7.76;59.88;101718.25;10524500;28;19931;-80
2023/04/20 18:13:18;;;;;;;;;;;;;;;7.74;60.41;101709.47;10516984;28;19932;-80
2023/04/20 18:18:20;;;;;;;;;;;;;;;7.68;60.84;101715.88;10545246;28;19924;-77
2023/04/20 18:23:23;;;;;;;;;;;;;;;7.74;59.80;101707.56;10547106;28;19939;-77
2023/04/20 18:28:25;;;;;;;;;;;;;;;7.44;61.16;101710.34;10547257;28;20387;-78
2023/04/20 18:33:27;;;;;;;;;;;;;;;7.37;61.18;101704.19;10518635;28;19924;-79
2023/04/20 18:38:29;;;;;;;;;;;;;;;7.33;61.68;101702.16;10541422;28;20407;-79
2023/04/20 18:43:34;;;;;;;;;;;;;;;7.26;61.55;101699.50;10552412;28;19924;-77
2023/04/20 18:48:36;;;;;;;;;;;;;;;7.25;61.79;101704.13;10526410;28;20360;-77
2023/04/20 18:53:38;;;;;;;;;;;;;;;6.92;61.83;101696.44;10570518;28;19924;-79
2023/04/20 18:58:40;;;;;;;;;;;;;;;6.77;62.87;101706.09;10527352;28;19924;-80
2023/04/20 19:03:42;;;;;;;;;;;;;;;6.55;63.46;101701.13;10529690;28;19931;-79
2023/04/20 19:08:45;;;;;;;;;;;;;;;6.40;64.06;101703.38;10530933;28;20398;-79
2023/04/20 19:13:48;;;;;;;;;;;;;;;6.28;64.80;101697.03;10548143;28;20022;-80
2023/04/20 19:18:55;;;;;;;;;;;;;;;6.15;65.56;101689.84;10554727;28;19928;-80
2023/04/20 19:23:57;;;;;;;;;;;;;;;6.03;66.44;101691.63;10567811;28;20323;-81
2023/04/20 19:28:59;;;;;;;;;;;;;;;6.02;66.75;101684.53;10553709;28;19967;-79
2023/04/20 19:34:02;;;;;;;;;;;;;;;6.18;66.43;101689.38;10517594;28;19924;-79
2023/04/20 19:39:05;;;;;;;;;;;;;;;6.24;66.45;101684.91;10511683;28;19924;-78
2023/04/20 19:44:13;;;;;;;;;;;;;;;6.05;66.94;101681.34;10546121;28;19931;-79
2023/04/20 19:49:15;;;;;;;;;;;;;;;5.95;66.95;101673.72;10530495;28;20020;-80
2023/04/20 19:54:20;;;;;;;;;;;;;;;5.93;67.18;101673.09;10557178;28;19928;-79
2023/04/20 19:59:27;;;;;;;;;;;;;;;5.77;67.78;101681.81;10548980;28;19950;-79
2023/04/20 20:04:30;;;;;;;;;;;;;;;5.79;67.77;101673.41;10526726;28;19950;-78
2023/04/20 20:09:32;;;;;;;;;;;;;;;5.73;68.17;101675.16;10525412;28;19950;-78
2023/04/20 20:14:35;;;;;;;;;;;;;;;5.69;68.57;101668.47;10534559;28;19928;-79
2023/04/20 20:19:37;;;;;;;;;;;;;;;5.74;68.30;101661.31;10582967;28;19928;-79
2023/04/20 20:24:39;;;;;;;;;;;;;;;5.73;68.66;101659.66;10522290;28;19924;-80
2023/04/20 20:29:40;;;;;;;;;;;;;;;5.82;68.07;101660.19;10568998;28;20387;-78
2023/04/20 20:34:42;;;;;;;;;;;;;;;5.72;68.65;101654.41;10517017;28;19924;-78
2023/04/20 20:39:44;;;;;;;;;;;;;;;5.57;69.27;101654.78;10555260;28;19931;-78
2023/04/20 20:44:46;;;;;;;;;;;;;;;5.66;69.61;101653.41;10556916;28;19931;-78
2023/04/20 20:49:48;;;;;;;;;;;;;;;5.78;69.70;101647.25;10515771;28;20007;-79
2023/04/20 20:54:51;;;;;;;;;;;;;;;5.68;69.60;101642.28;10561539;28;19924;-80
2023/04/20 20:59:53;;;;;;;;;;;;;;;5.52;70.08;101632.81;10540044;28;19924;-78
2023/04/20 21:04:55;;;;;;;;;;;;;;;5.48;70.36;101634.31;10515104;28;19924;-78
2023/04/20 21:09:56;;;;;;;;;;;;;;;6.15;70.54;101640.78;10544536;28;19928;-79
2023/04/20 21:14:59;;;;;;;;;;;;;;;5.93;69.29;101625.97;10550481;28;19947;-80
2023/04/20 21:20:04;;;;;;;;;;;;;;;5.68;69.63;101628.69;10573609;28;19932;-82
2023/04/20 21:25:06;;;;;;;;;;;;;;;5.56;70.21;101625.88;10565648;28;19923;-80
2023/04/20 21:30:08;;;;;;;;;;;;;;;5.62;70.02;101624.97;10542261;28;19931;-78
2023/04/20 21:35:10;;;;;;;;;;;;;;;5.58;70.34;101614.75;10540158;28;19924;-78
2023/04/20 21:40:12;;;;;;;;;;;;;;;5.52;70.46;101616.47;10538699;28;20299;-79
2023/04/20 21:45:14;;;;;;;;;;;;;;;5.56;70.83;101604.09;10512481;28;19924;-81
2023/04/20 21:50:16;;;;;;;;;;;;;;;5.37;70.77;101595.03;10582889;28;19924;-78
2023/04/20 21:55:18;;;;;;;;;;;;;;;5.26;71.69;101609.41;10536836;28;19924;-78
2023/04/20 22:00:20;;;;;;;;;;;;;;;5.28;72.03;101593.66;10526106;28;19935;-81
2023/04/20 22:05:22;;;;;;;;;;;;;;;5.23;71.93;101600.84;10506784;28;20018;-79
2023/04/20 22:10:24;;;;;;;;;;;;;;;5.27;71.98;101593.91;10571048;28;20407;-80
2023/04/20 22:15:26;;;;;;;;;;;;;;;5.26;72.24;101594.94;10552510;28;19924;-79
2023/04/20 22:20:28;;;;;;;;;;;;;;;5.34;72.19;101589.22;10550947;28;19931;-79
2023/04/20 22:25:30;;;;;;;;;;;;;;;5.42;71.66;101587.06;10569947;28;20410;-78
2023/04/20 22:30:32;;;;;;;;;;;;;;;5.42;72.05;101580.78;10549173;28;20304;-78
2023/04/20 22:35:34;;;;;;;;;;;;;;;5.42;71.79;101572.63;10516334;28;19950;-78
2023/04/20 22:40:35;;;;;;;;;;;;;;;5.24;72.63;101570.69;10566733;28;19935;-80
2023/04/20 22:45:37;;;;;;;;;;;;;;;5.33;72.27;101563.06;10535773;28;19927;-79
2023/04/20 22:50:39;;;;;;;;;;;;;;;5.34;72.43;101556.56;10559463;28;19923;-79
2023/04/20 22:55:41;;;;;;;;;;;;;;;5.38;72.55;101550.47;10569283;28;19924;-79
2023/04/20 23:00:43;;;;;;;;;;;;;;;5.16;72.91;101535.59;10542307;28;19924;-79
2023/04/20 23:05:45;;;;;;;;;;;;;;;4.96;73.80;101543.91;10575609;28;20342;-78
2023/04/20 23:10:47;;;;;;;;;;;;;;;5.00;74.06;101549.75;10563259;28;19935;-79
2023/04/20 23:15:49;;;;;;;;;;;;;;;4.89;74.57;101547.75;10539464;28;19936;-79
2023/04/20 23:20:51;;;;;;;;;;;;;;;4.97;74.50;101542.88;10516586;28;19931;-79
2023/04/20 23:25:53;;;;;;;;;;;;;;;5.03;74.00;101547.44;10557508;28;19923;-78
2023/04/20 23:30:55;;;;;;;;;;;;;;;5.11;73.77;101538.16;10545171;28;19924;-80
2023/04/20 23:35:57;;;;;;;;;;;;;;;4.95;74.65;101539.53;10529432;28;19931;-78
2023/04/20 23:40:59;;;;;;;;;;;;;;;4.93;74.74;101546.25;10548596;28;19924;-79
2023/04/20 23:46:02;;;;;;;;;;;;;;;4.95;75.00;101538.72;10593969;28;19924;-78
2023/04/20 23:51:04;;;;;;;;;;;;;;;4.73;76.28;101540.97;10516516;28;20123;-80
2023/04/20 23:56:06;;;;;;;;;;;;;;;4.66;76.53;101535.56;10529773;28;19924;-80
